createdAt,value
2023-04-28T00:01:27.718Z,49.10
2023-04-28T00:03:55.473Z,40.78
2023-04-28T00:06:22.211Z,50.30
2023-04-28T00:08:48.903Z,45.58
2023-04-28T00:11:15.458Z,48.35
2023-04-28T00:13:42.012Z,48.53
2023-04-28T00:16:08.612Z,50.83
2023-04-28T00:18:35.296Z,45.20
2023-04-28T00:21:01.940Z,55.67
2023-04-28T00:23:28.625Z,64.72
2023-04-28T00:25:57.354Z,61.72
2023-04-28T00:28:34.138Z,63.67
2023-04-28T00:31:03.004Z,66.32
2023-04-28T00:33:29.546Z,55.33
2023-04-28T00:36:00.788Z,65.93
2023-04-28T00:38:27.526Z,62.72
2023-04-28T00:40:54.104Z,70.82
2023-04-28T00:43:20.724Z,61.67
2023-04-28T00:45:47.338Z,75.28
2023-04-28T00:48:14.155Z,60.58
2023-04-28T00:50:40.910Z,62.60
2023-04-28T00:53:08.070Z,62.92
2023-04-28T00:55:35.395Z,67.15
2023-04-28T00:58:02.665Z,56.15
2023-04-28T01:00:29.372Z,61.10
2023-04-28T01:02:57.365Z,57.70
2023-04-28T01:05:28.947Z,75.68
2023-04-28T01:07:56.506Z,63.80
2023-04-28T01:10:23.223Z,70.70
2023-04-28T01:12:49.931Z,73.15
2023-04-28T01:15:18.479Z,69.28
2023-04-28T01:17:47.705Z,71.32
2023-04-28T01:20:15.368Z,70.35
2023-04-28T01:22:42.563Z,66.53
2023-04-28T01:25:09.670Z,74.20
2023-04-28T01:27:36.325Z,67.53
2023-04-28T01:30:03.273Z,78.13
2023-04-28T01:32:30.013Z,70.75
2023-04-28T01:34:56.663Z,68.10
2023-04-28T01:37:26.486Z,60.83
2023-04-28T01:39:53.866Z,66.75
2023-04-28T01:42:20.520Z,64.63
2023-04-28T01:44:47.131Z,61.55
2023-04-28T01:47:14.004Z,76.97
2023-04-28T01:49:40.621Z,59.10
2023-04-28T01:52:07.958Z,62.65
2023-04-28T01:54:35.056Z,59.72
2023-04-28T01:57:03.225Z,53.92
2023-04-28T01:59:31.027Z,57.25
2023-04-28T02:01:57.988Z,50.63
2023-04-28T02:04:25.004Z,54.25
2023-04-28T02:06:51.826Z,51.17
2023-04-28T02:09:18.372Z,54.13
2023-04-28T02:11:45.260Z,47.30
2023-04-28T02:14:11.911Z,56.40
2023-04-28T02:16:38.526Z,53.25
2023-04-28T02:19:05.047Z,51.50
2023-04-28T02:21:31.895Z,58.25
2023-04-28T02:23:58.754Z,59.97
2023-04-28T02:26:25.862Z,68.63
2023-04-28T02:28:52.480Z,70.85
2023-04-28T02:31:19.210Z,73.30
2023-04-28T02:33:46.532Z,82.15
2023-04-28T02:36:13.396Z,80.90
2023-04-28T02:38:41.659Z,74.78
2023-04-28T02:41:11.395Z,74.32
2023-04-28T02:43:38.037Z,73.28
2023-04-28T02:46:05.172Z,78.63
2023-04-28T02:48:33.096Z,73.43
2023-04-28T02:50:59.784Z,69.95
2023-04-28T02:53:26.504Z,78.90
2023-04-28T02:55:53.214Z,62.70
2023-04-28T02:58:19.913Z,72.63
2023-04-28T03:00:47.192Z,65.88
2023-04-28T03:03:14.484Z,65.38
2023-04-28T03:05:41.564Z,64.20
2023-04-28T03:08:08.054Z,66.70
2023-04-28T03:10:34.796Z,73.13
2023-04-28T03:13:02.391Z,59.50
2023-04-28T03:15:29.998Z,69.60
2023-04-28T03:17:57.591Z,56.85
2023-04-28T03:20:24.294Z,53.40
2023-04-28T03:22:50.877Z,59.33
2023-04-28T03:25:18.375Z,57.25
2023-04-28T03:27:48.453Z,50.58
2023-04-28T03:30:15.233Z,55.00
2023-04-28T03:32:41.872Z,53.60
2023-04-28T03:35:09.130Z,59.58
2023-04-28T03:37:36.330Z,53.65
2023-04-28T03:40:03.411Z,52.20
2023-04-28T03:42:39.927Z,54.25
2023-04-28T03:45:12.458Z,59.30
2023-04-28T03:47:39.227Z,55.63
2023-04-28T03:50:06.455Z,49.50
2023-04-28T03:52:33.049Z,50.13
2023-04-28T03:55:00.017Z,55.85
2023-04-28T03:57:27.015Z,58.25
2023-04-28T03:59:53.519Z,50.55
2023-04-28T04:02:20.338Z,53.08
2023-04-28T04:04:47.298Z,60.33
2023-04-28T04:07:14.324Z,62.08
2023-04-28T04:09:42.099Z,56.55
2023-04-28T04:12:09.439Z,55.40
2023-04-28T04:14:36.895Z,52.90
2023-04-28T04:17:03.858Z,58.53
2023-04-28T04:19:30.770Z,61.05
2023-04-28T04:21:57.685Z,56.47
2023-04-28T04:24:25.078Z,60.53
2023-04-28T04:26:51.913Z,66.22
2023-04-28T04:29:29.042Z,62.13
2023-04-28T04:31:56.378Z,62.55
2023-04-28T04:34:23.021Z,55.65
2023-04-28T04:36:49.678Z,64.55
2023-04-28T04:39:16.818Z,60.13
2023-04-28T04:41:43.448Z,62.60
2023-04-28T04:44:35.855Z,66.90
2023-04-28T04:47:06.157Z,60.15
2023-04-28T04:49:34.236Z,70.80
2023-04-28T04:52:02.915Z,63.50
2023-04-28T04:54:30.392Z,58.53
2023-04-28T04:56:58.224Z,59.88
2023-04-28T04:59:43.511Z,63.60
2023-04-28T05:02:15.875Z,55.90
2023-04-28T05:04:42.716Z,55.60
2023-04-28T05:07:10.639Z,64.43
2023-04-28T05:09:40.107Z,67.90
2023-04-28T05:12:07.477Z,65.65
2023-04-28T05:14:34.073Z,58.80
2023-04-28T05:17:00.794Z,58.55
2023-04-28T05:19:33.341Z,65.10
2023-04-28T05:22:01.090Z,60.53
2023-04-28T05:24:28.115Z,60.15
2023-04-28T05:26:58.717Z,53.97
2023-04-28T05:29:25.632Z,55.65
2023-04-28T05:31:52.215Z,57.58
2023-04-28T05:34:22.295Z,60.40
2023-04-28T05:36:49.484Z,54.10
2023-04-28T05:39:17.670Z,55.63
2023-04-28T05:41:44.594Z,54.15
2023-04-28T05:44:11.793Z,58.33
2023-04-28T05:46:39.628Z,55.67
2023-04-28T05:49:06.245Z,52.13
2023-04-28T05:51:36.928Z,60.88
2023-04-28T05:54:03.639Z,72.07
2023-04-28T05:56:33.250Z,67.90
2023-04-28T05:59:04.275Z,58.63
2023-04-28T06:01:32.119Z,55.60
2023-04-28T06:03:59.025Z,58.90
2023-04-28T06:06:27.796Z,54.33
2023-04-28T06:08:54.606Z,50.00
2023-04-28T06:11:22.621Z,52.05
2023-04-28T06:13:50.846Z,47.80
2023-04-28T06:16:18.928Z,46.42
2023-04-28T06:18:48.465Z,52.97
2023-04-28T06:21:17.334Z,44.00
2023-04-28T06:23:44.295Z,52.67
2023-04-28T06:26:10.954Z,42.83
2023-04-28T06:28:39.445Z,39.78
2023-04-28T06:31:07.681Z,40.97
2023-04-28T06:33:34.248Z,42.60
2023-04-28T06:36:01.304Z,39.95
2023-04-28T06:38:27.834Z,37.47
2023-04-28T06:40:54.417Z,35.38
2023-04-28T06:43:21.049Z,36.10
2023-04-28T06:46:01.112Z,38.13
2023-04-28T06:48:27.969Z,40.20
2023-04-28T06:50:54.630Z,38.13
2023-04-28T06:53:22.591Z,29.35
2023-04-28T06:55:49.208Z,29.85
2023-04-28T06:58:16.272Z,30.10
2023-04-28T07:00:42.843Z,28.65
2023-04-28T07:03:09.633Z,30.30
2023-04-28T07:05:36.327Z,25.65
2023-04-28T07:08:03.635Z,22.52
2023-04-28T07:10:30.183Z,28.27
2023-04-28T07:12:56.805Z,23.70
2023-04-28T07:15:24.549Z,30.70
2023-04-28T07:17:51.472Z,23.73
2023-04-28T07:20:18.357Z,25.60
2023-04-28T07:22:44.948Z,23.52
2023-04-28T07:25:11.879Z,23.17
2023-04-28T07:27:38.621Z,20.30
2023-04-28T07:30:18.419Z,22.55
2023-04-28T07:32:52.659Z,21.67
2023-04-28T07:35:19.234Z,21.52
2023-04-28T07:37:46.274Z,31.73
2023-04-28T07:40:13.020Z,20.15
2023-04-28T07:42:39.709Z,24.33
2023-04-28T07:45:06.830Z,18.63
2023-04-28T07:47:33.715Z,18.40
2023-04-28T07:50:03.439Z,19.13
2023-04-28T07:52:30.086Z,20.05
2023-04-28T07:54:56.675Z,21.10
2023-04-28T07:57:23.443Z,23.30
2023-04-28T07:59:50.512Z,17.02
2023-04-28T08:02:17.188Z,26.10
2023-04-28T08:04:43.980Z,18.73
2023-04-28T08:07:11.194Z,13.82
2023-04-28T08:09:37.823Z,15.48
2023-04-28T08:12:04.494Z,18.13
2023-04-28T08:14:30.994Z,12.57
2023-04-28T08:16:57.971Z,13.48
2023-04-28T08:19:24.685Z,23.30
2023-04-28T08:21:51.450Z,14.05
2023-04-28T08:24:18.274Z,10.43
2023-04-28T08:26:45.577Z,8.70
2023-04-28T08:29:12.547Z,11.77
2023-04-28T08:31:42.233Z,11.00
2023-04-28T08:34:08.762Z,11.68
2023-04-28T08:36:35.441Z,19.55
2023-04-28T08:39:04.382Z,15.23
2023-04-28T08:41:37.426Z,10.73
2023-04-28T08:44:08.918Z,10.93
2023-04-28T08:46:36.149Z,10.60
2023-04-28T08:49:06.341Z,8.50
2023-04-28T08:51:43.699Z,14.90
2023-04-28T08:54:29.503Z,13.57
2023-04-28T08:56:57.936Z,16.00
2023-04-28T08:59:24.787Z,14.10
2023-04-28T09:01:51.886Z,14.27
2023-04-28T09:04:19.774Z,13.70
2023-04-28T09:06:46.838Z,10.82
2023-04-28T09:09:27.358Z,10.82
2023-04-28T09:11:59.550Z,10.68
2023-04-28T09:14:32.993Z,11.20
2023-04-28T09:16:59.855Z,10.48
2023-04-28T09:19:34.522Z,8.27
2023-04-28T09:22:05.687Z,15.15
2023-04-28T09:24:40.521Z,10.30
2023-04-28T09:27:10.725Z,9.73
2023-04-28T09:29:38.611Z,12.45
2023-04-28T09:32:16.325Z,12.02
2023-04-28T09:34:50.691Z,8.80
2023-04-28T09:37:21.476Z,8.30
2023-04-28T09:39:52.739Z,7.00
2023-04-28T09:42:41.614Z,15.50
2023-04-28T09:45:10.379Z,13.30
2023-04-28T09:47:39.935Z,13.95
2023-04-28T09:50:14.338Z,9.90
2023-04-28T09:52:42.112Z,12.77
2023-04-28T09:55:09.039Z,10.48
2023-04-28T09:57:36.824Z,12.07
2023-04-28T10:00:08.924Z,9.07
2023-04-28T10:05:09.666Z,15.77
2023-04-28T10:07:37.750Z,9.40
2023-04-28T10:10:06.290Z,12.30
2023-04-28T10:12:33.183Z,9.80
2023-04-28T10:15:00.026Z,10.70
2023-04-28T10:17:29.141Z,11.50
2023-04-28T10:19:55.958Z,18.38
2023-04-28T10:22:53.629Z,13.98
2023-04-28T10:27:40.382Z,12.27
2023-04-28T10:30:26.486Z,16.63
2023-04-28T10:33:06.665Z,9.93
2023-04-28T10:35:36.168Z,9.68
2023-04-28T10:38:16.094Z,12.05
2023-04-28T10:40:51.052Z,13.77
2023-04-28T10:43:32.852Z,10.23
2023-04-28T10:46:02.821Z,8.52
2023-04-28T10:48:29.789Z,13.90
2023-04-28T10:51:09.797Z,10.63
2023-04-28T10:53:42.467Z,11.70
2023-04-28T10:56:09.662Z,17.80
2023-04-28T10:58:39.888Z,11.48
2023-04-28T11:01:22.184Z,11.32
2023-04-28T11:04:02.361Z,10.55
2023-04-28T11:06:39.472Z,11.10
2023-04-28T11:09:12.212Z,12.73
2023-04-28T11:11:40.232Z,11.20
2023-04-28T11:14:22.038Z,12.90
2023-04-28T11:16:50.480Z,10.73
2023-04-28T11:19:22.909Z,10.70
2023-04-28T11:21:50.138Z,12.15
2023-04-28T11:24:17.313Z,8.15
2023-04-28T11:26:44.674Z,12.95
2023-04-28T11:29:12.243Z,11.23
2023-04-28T11:31:50.905Z,8.43
2023-04-28T11:34:26.732Z,11.60
2023-04-28T11:36:54.913Z,9.40
2023-04-28T11:39:33.267Z,10.07
2023-04-28T11:42:02.831Z,9.00
2023-04-28T11:44:31.244Z,11.45
2023-04-28T11:47:01.086Z,9.57
2023-04-28T11:49:41.476Z,10.63
2023-04-28T11:52:09.112Z,10.18
2023-04-28T11:54:35.999Z,12.95
2023-04-28T11:57:08.866Z,11.38
2023-04-28T11:59:35.917Z,17.17
2023-04-28T12:02:05.617Z,8.60
2023-04-28T12:04:40.986Z,9.32
2023-04-28T12:07:10.537Z,11.45
2023-04-28T12:09:39.405Z,7.60
2023-04-28T12:12:14.419Z,11.30
2023-04-28T12:15:01.522Z,7.30
2023-04-28T12:17:32.221Z,8.07
2023-04-28T12:20:04.088Z,14.10
2023-04-28T12:25:08.362Z,10.15
2023-04-28T12:27:39.054Z,10.27
2023-04-28T12:30:21.147Z,9.63
2023-04-28T12:32:48.384Z,8.80
2023-04-28T12:35:15.998Z,11.82
2023-04-28T12:37:43.186Z,8.23
2023-04-28T12:40:10.687Z,5.90
2023-04-28T12:42:37.388Z,10.55
2023-04-28T12:45:05.822Z,7.75
2023-04-28T12:47:32.548Z,8.38
2023-04-28T12:49:59.186Z,10.25
2023-04-28T12:52:26.538Z,7.30
2023-04-28T12:54:53.149Z,11.13
2023-04-28T12:57:20.521Z,12.50
2023-04-28T12:59:48.386Z,10.38
2023-04-28T13:02:15.531Z,10.30
2023-04-28T13:04:48.453Z,11.55
2023-04-28T13:07:16.175Z,8.65
2023-04-28T13:09:43.764Z,10.43
2023-04-28T13:12:11.832Z,10.15
2023-04-28T13:14:38.479Z,14.60
2023-04-28T13:17:05.074Z,9.75
2023-04-28T13:19:32.661Z,9.23
2023-04-28T13:21:59.367Z,14.10
2023-04-28T13:24:28.873Z,7.80
2023-04-28T13:26:55.421Z,10.95
2023-04-28T13:29:22.548Z,10.50
2023-04-28T13:31:49.330Z,12.02
2023-04-28T13:34:17.445Z,12.93
2023-04-28T13:36:45.038Z,16.73
2023-04-28T13:39:13.516Z,9.60
2023-04-28T13:41:40.359Z,11.65
2023-04-28T13:44:06.948Z,12.90
2023-04-28T13:46:34.031Z,11.40
2023-04-28T13:49:00.916Z,8.32
2023-04-28T13:51:28.760Z,9.23
2023-04-28T13:53:55.309Z,9.05
2023-04-28T13:56:21.928Z,7.38
2023-04-28T13:58:48.566Z,16.42
2023-04-28T14:01:15.455Z,13.73
2023-04-28T14:03:42.189Z,14.82
2023-04-28T14:06:09.173Z,10.80
2023-04-28T14:08:36.043Z,13.30
2023-04-28T14:11:02.652Z,9.60
2023-04-28T14:13:29.770Z,13.70
2023-04-28T14:15:59.473Z,6.45
2023-04-28T14:18:26.905Z,13.35
2023-04-28T14:20:54.499Z,8.57
2023-04-28T14:23:24.585Z,16.08
2023-04-28T14:25:55.986Z,12.50
2023-04-28T14:28:23.079Z,12.90
2023-04-28T14:30:50.081Z,14.77
2023-04-28T14:33:16.871Z,7.93
2023-04-28T14:35:43.461Z,19.48
2023-04-28T14:38:10.878Z,12.57
2023-04-28T14:40:37.471Z,7.97
2023-04-28T14:43:04.792Z,11.45
2023-04-28T14:45:31.539Z,6.28
2023-04-28T14:47:58.625Z,12.43
2023-04-28T14:50:26.885Z,9.68
2023-04-28T14:52:53.530Z,8.25
2023-04-28T14:55:20.158Z,9.13
2023-04-28T14:57:48.184Z,11.25
2023-04-28T15:00:15.364Z,14.10
2023-04-28T15:02:42.093Z,10.80
2023-04-28T15:05:09.639Z,12.88
2023-04-28T15:07:36.509Z,16.08
2023-04-28T15:10:03.094Z,10.38
2023-04-28T15:12:30.574Z,9.77
2023-04-28T15:14:57.929Z,7.68
2023-04-28T15:17:24.921Z,11.05
2023-04-28T15:19:51.876Z,13.68
2023-04-28T15:22:18.773Z,9.80
2023-04-28T15:24:46.569Z,33.75
2023-04-28T15:27:13.386Z,14.05
2023-04-28T15:29:40.034Z,18.70
2023-04-28T15:32:06.911Z,10.57
2023-04-28T15:34:33.807Z,12.95
2023-04-28T15:37:01.368Z,14.70
2023-04-28T15:39:28.509Z,12.05
2023-04-28T15:41:56.392Z,8.00
2023-04-28T15:44:23.164Z,12.43
2023-04-28T15:46:51.827Z,17.20
2023-04-28T15:49:18.404Z,9.98
2023-04-28T15:51:45.581Z,10.65
2023-04-28T15:54:12.602Z,10.02
2023-04-28T15:56:39.366Z,11.30
2023-04-28T15:59:05.847Z,7.93
2023-04-28T16:01:32.520Z,11.43
2023-04-28T16:03:59.283Z,11.68
2023-04-28T16:06:25.942Z,13.45
2023-04-28T16:08:52.574Z,17.25
2023-04-28T16:11:20.369Z,14.65
2023-04-28T16:13:46.895Z,15.00
2023-04-28T16:16:13.548Z,11.35
2023-04-28T16:18:40.121Z,7.25
2023-04-28T16:21:06.798Z,15.15
2023-04-28T16:23:33.696Z,7.68
2023-04-28T16:26:00.765Z,12.90
2023-04-28T16:28:27.558Z,11.82
2023-04-28T16:30:54.254Z,9.30
2023-04-28T16:33:20.750Z,16.20
2023-04-28T16:35:54.933Z,12.52
2023-04-28T16:38:21.841Z,13.57
2023-04-28T16:40:49.179Z,11.70
2023-04-28T16:43:15.947Z,9.48
2023-04-28T16:45:43.500Z,16.73
2023-04-28T16:48:10.149Z,16.05
2023-04-28T16:50:38.697Z,14.10
2023-04-28T16:53:06.659Z,11.10
2023-04-28T16:57:51.731Z,12.95
2023-04-28T17:00:18.850Z,13.13
2023-04-28T17:02:45.609Z,15.95
2023-04-28T17:05:12.619Z,11.65
2023-04-28T17:07:39.127Z,11.05
2023-04-28T17:10:09.453Z,11.07
2023-04-28T17:12:38.238Z,7.30
2023-04-28T17:15:06.953Z,10.30
2023-04-28T17:17:34.583Z,11.25
2023-04-28T17:20:02.326Z,11.27
2023-04-28T17:22:30.606Z,10.80
2023-04-28T17:24:59.802Z,9.25
2023-04-28T17:27:26.586Z,13.18
2023-04-28T17:29:53.575Z,17.98
2023-04-28T17:32:20.381Z,114.60
2023-04-28T17:34:47.469Z,130.65
2023-04-28T17:37:14.184Z,12.80
2023-04-28T17:39:40.706Z,13.38
2023-04-28T17:42:07.410Z,15.45
2023-04-28T17:44:33.916Z,19.38
2023-04-28T17:47:01.233Z,14.77
2023-04-28T17:49:27.975Z,21.00
2023-04-28T17:51:54.715Z,61.33
2023-04-28T17:54:21.228Z,17.65
2023-04-28T17:56:47.859Z,10.63
2023-04-28T17:59:15.898Z,14.50
2023-04-28T18:01:42.808Z,13.60
2023-04-28T18:04:09.538Z,14.23
2023-04-28T18:06:36.255Z,17.35
2023-04-28T18:09:02.812Z,13.80
2023-04-28T18:11:29.436Z,10.23
2023-04-28T18:13:56.312Z,80.43
2023-04-28T18:16:22.886Z,228.30
2023-04-28T18:18:49.449Z,300.77
2023-04-28T18:21:16.621Z,391.63
2023-04-28T18:23:43.319Z,609.10
2023-04-28T18:26:10.021Z,140.85
2023-04-28T18:28:36.839Z,177.73
2023-04-28T18:31:07.356Z,39.90
2023-04-28T18:33:34.072Z,143.18
2023-04-28T18:36:06.362Z,189.98
2023-04-28T18:38:37.227Z,53.15
2023-04-28T18:41:14.823Z,38.97
2023-04-28T18:43:42.897Z,25.38
2023-04-28T18:46:15.332Z,22.75
2023-04-28T18:48:42.239Z,28.25
2023-04-28T18:51:11.620Z,22.02
2023-04-28T18:53:40.930Z,186.75
2023-04-28T18:56:07.602Z,558.30
2023-04-28T18:58:37.171Z,82.82
2023-04-28T19:01:04.290Z,427.90
2023-04-28T19:03:31.808Z,93.63
2023-04-28T19:05:58.473Z,209.40
2023-04-28T19:08:28.064Z,77.85
2023-04-28T19:10:57.076Z,39.40
2023-04-28T19:13:26.534Z,19.75
2023-04-28T19:15:57.032Z,43.95
2023-04-28T19:18:23.648Z,19.15
2023-04-28T19:20:52.170Z,30.35
2023-04-28T19:23:21.871Z,20.23
2023-04-28T19:25:48.629Z,135.55
2023-04-28T19:28:15.431Z,28.13
2023-04-28T19:30:42.109Z,17.83
2023-04-28T19:33:09.450Z,34.72
2023-04-28T19:35:36.091Z,259.35
2023-04-28T19:38:02.796Z,104.53
2023-04-28T19:40:30.396Z,21.75
2023-04-28T19:42:57.374Z,31.33
2023-04-28T19:45:24.571Z,23.58
2023-04-28T19:47:52.323Z,170.35
2023-04-28T19:50:19.474Z,194.23
2023-04-28T19:52:46.426Z,65.88
2023-04-28T19:55:18.408Z,65.07
2023-04-28T20:00:13.542Z,142.82
2023-04-28T20:02:40.728Z,41.88
2023-04-28T20:05:08.092Z,116.47
2023-04-28T20:07:42.470Z,690.00
2023-04-28T20:10:09.565Z,238.02
2023-04-28T20:12:36.126Z,381.05
2023-04-28T20:15:02.848Z,121.03
2023-04-28T20:17:29.391Z,131.85
2023-04-28T20:19:56.385Z,85.63
2023-04-28T20:22:23.222Z,17.58
2023-04-28T20:24:50.205Z,15.85
2023-04-28T20:27:16.802Z,30.45
2023-04-28T20:29:52.779Z,159.40
2023-04-28T20:32:22.671Z,55.33
2023-04-28T20:34:49.508Z,27.60
2023-04-28T20:37:24.606Z,57.47
2023-04-28T20:39:51.547Z,39.05
2023-04-28T20:42:18.415Z,61.95
2023-04-28T20:44:48.661Z,51.88
2023-04-28T20:47:24.756Z,242.90
2023-04-28T20:52:24.242Z,107.75
2023-04-28T20:54:52.063Z,41.35
2023-04-28T20:57:18.911Z,93.40
2023-04-28T20:59:45.912Z,180.80
2023-04-28T21:02:12.670Z,380.58
2023-04-28T21:04:42.166Z,149.65
2023-04-28T21:07:08.752Z,149.23
2023-04-28T21:09:37.416Z,140.77
2023-04-28T21:12:04.434Z,155.57
2023-04-28T21:14:34.295Z,130.07
2023-04-28T21:17:03.392Z,77.00
2023-04-28T21:19:30.815Z,20.10
2023-04-28T21:21:58.321Z,48.13
2023-04-28T21:24:27.208Z,52.35
2023-04-28T21:26:53.862Z,94.22
2023-04-28T21:29:20.362Z,97.20
2023-04-28T21:31:47.412Z,110.07
2023-04-28T21:34:14.004Z,73.35
2023-04-28T21:36:40.602Z,77.45
2023-04-28T21:39:07.733Z,88.95
2023-04-28T21:41:34.504Z,113.18
2023-04-28T21:44:01.138Z,70.15
2023-04-28T21:46:28.185Z,175.27
2023-04-28T21:48:55.293Z,111.00
2023-04-28T21:51:21.878Z,182.63
2023-04-28T21:53:51.069Z,196.77
2023-04-28T21:56:20.197Z,325.35
2023-04-28T21:58:46.784Z,281.15
2023-04-28T22:01:17.955Z,654.80
2023-04-28T22:03:46.164Z,466.47
2023-04-28T22:06:13.596Z,102.93
2023-04-28T22:08:40.325Z,28.60
2023-04-28T22:11:06.937Z,21.85
2023-04-28T22:13:33.748Z,24.30
2023-04-28T22:16:01.845Z,20.42
2023-04-28T22:18:29.136Z,18.20
2023-04-28T22:20:55.744Z,22.13
2023-04-28T22:23:22.868Z,26.75
2023-04-28T22:25:50.170Z,29.50
2023-04-28T22:28:16.829Z,23.88
2023-04-28T22:30:46.676Z,20.75
2023-04-28T22:33:13.442Z,35.05
2023-04-28T22:35:40.556Z,24.75
2023-04-28T22:38:07.999Z,21.45
2023-04-28T22:40:34.551Z,21.25
2023-04-28T22:43:01.125Z,25.90
2023-04-28T22:45:28.744Z,21.27
2023-04-28T22:47:56.296Z,24.92
2023-04-28T22:50:23.087Z,23.70
2023-04-28T22:52:50.358Z,25.63
2023-04-28T22:55:17.061Z,26.90
2023-04-28T22:57:43.642Z,25.65
2023-04-28T23:00:10.669Z,20.77
2023-04-28T23:02:37.472Z,25.92
2023-04-28T23:05:04.732Z,22.60
2023-04-28T23:07:31.479Z,24.85
2023-04-28T23:09:57.999Z,25.38
2023-04-28T23:12:24.613Z,34.25
2023-04-28T23:14:51.173Z,26.88
2023-04-28T23:17:18.972Z,26.45
2023-04-28T23:19:45.532Z,30.33
2023-04-28T23:22:12.093Z,25.08
2023-04-28T23:24:42.292Z,23.48
2023-04-28T23:27:09.362Z,28.48
2023-04-28T23:29:36.161Z,33.53
2023-04-28T23:32:03.527Z,26.27
2023-04-28T23:34:33.402Z,27.33
2023-04-28T23:37:01.046Z,26.83
2023-04-28T23:39:29.877Z,19.00
2023-04-28T23:41:56.445Z,27.85
2023-04-28T23:44:22.965Z,23.48
2023-04-28T23:46:49.566Z,22.90
2023-04-28T23:49:16.426Z,31.30
2023-04-28T23:51:43.232Z,22.35
2023-04-28T23:54:09.819Z,23.63
2023-04-28T23:56:36.430Z,23.25
2023-04-28T23:59:03.272Z,21.50
